Time;durP1;ratioP1;P1;durP2;ratioP2;P2;SDS_P1;SDS_P2;PMS_P1;PMS_P2;Temp;Humidity;BMP_temperature;BMP_pressure;BME280_temperature;BME280_humidity;BME280_pressure;Samples;Min_cycle;Max_cycle;Signal;HPM_P1;HPM_P2
2022/11/25 00:07:26;;;;;;;7.97;5.18;;;;;;;20.52;55.59;100261.28;20658543;28;20045;-84
2022/11/25 00:17:27;;;;;;;5.47;4.47;;;;;;;20.51;55.62;100286.75;20671173;28;20576;-81
2022/11/25 00:27:28;;;;;;;6.25;4.72;;;;;;;20.51;55.74;100291.16;20667654;28;20034;-83
2022/11/25 00:37:31;;;;;;;6.97;4.72;;;;;;;20.48;55.30;100300.97;20666850;28;20073;-81
2022/11/25 00:47:35;;;;;;;6.10;4.27;;;;;;;20.46;55.51;100316.03;20668684;28;20046;-82
2022/11/25 00:57:36;;;;;;;6.22;4.40;;;;;;;20.44;55.67;100317.94;20649906;28;20030;-82
2022/11/25 01:07:36;;;;;;;5.93;4.70;;;;;;;20.43;55.35;100313.66;20653249;28;20038;-82
2022/11/25 01:17:36;;;;;;;6.00;4.50;;;;;;;20.45;55.60;100313.53;20626906;28;20046;-83
2022/11/25 01:27:41;;;;;;;5.55;4.25;;;;;;;20.44;54.98;100323.19;20654414;28;20061;-80
2022/11/25 01:37:42;;;;;;;6.15;4.50;;;;;;;20.44;55.05;100333.72;20658908;28;20406;-82
2022/11/25 01:47:43;;;;;;;5.50;4.53;;;;;;;20.43;55.26;100331.19;20658866;28;20054;-80
2022/11/25 01:58:10;;;;;;;5.50;4.47;;;;;;;20.43;54.71;100339.09;20691365;28;20042;-82
2022/11/25 02:08:11;;;;;;;6.70;4.63;;;;;;;20.40;54.89;100337.53;20649902;28;20037;-81
2022/11/25 02:18:11;;;;;;;6.30;4.43;;;;;;;20.38;55.09;100343.88;20673107;28;20054;-84
2022/11/25 02:28:14;;;;;;;6.32;4.03;;;;;;;20.37;55.36;100335.13;20666643;28;20480;-83
2022/11/25 02:38:24;;;;;;;7.63;4.70;;;;;;;20.36;55.03;100356.28;20660899;28;20532;-84
2022/11/25 02:48:26;;;;;;;5.07;4.38;;;;;;;20.35;55.20;100344.09;20657924;28;21934;-83
2022/11/25 02:58:27;;;;;;;7.18;4.50;;;;;;;20.35;54.98;100329.16;20666528;28;20034;-80
2022/11/25 03:08:29;;;;;;;5.32;4.10;;;;;;;20.33;55.02;100365.25;20653369;28;20077;-81
2022/11/25 03:18:30;;;;;;;5.20;4.33;;;;;;;20.35;55.18;100373.00;20631041;28;20424;-82
2022/11/25 03:28:30;;;;;;;4.88;3.95;;;;;;;20.32;55.01;100387.22;20664387;28;20056;-82
2022/11/25 03:38:30;;;;;;;5.65;3.90;;;;;;;20.33;55.24;100388.91;20667874;28;20057;-82
2022/11/25 03:48:31;;;;;;;4.97;3.90;;;;;;;20.30;55.31;100389.16;20664682;28;20038;-81
2022/11/25 03:58:31;;;;;;;5.70;4.28;;;;;;;20.33;54.82;100398.59;20680551;28;20049;-82
2022/11/25 04:08:32;;;;;;;4.47;3.85;;;;;;;20.35;54.84;100402.78;20664826;28;20042;-82
2022/11/25 04:18:32;;;;;;;5.32;3.92;;;;;;;20.31;54.56;100407.44;20641095;28;20042;-82
2022/11/25 04:28:34;;;;;;;5.07;4.05;;;;;;;20.30;54.74;100433.84;20654157;28;20057;-83
2022/11/25 04:38:35;;;;;;;5.67;4.17;;;;;;;20.28;54.71;100441.00;20668075;28;20104;-84
2022/11/25 04:48:35;;;;;;;4.50;3.70;;;;;;;20.30;54.90;100447.81;20645753;28;20030;-82
2022/11/25 05:08:55;;;;;;;7.00;4.00;;;;;;;20.33;54.61;100477.50;20643032;28;20472;-83
2022/11/25 05:18:55;;;;;;;5.03;3.83;;;;;;;20.46;54.92;100499.31;20646738;28;20041;-83
2022/11/25 05:28:56;;;;;;;8.48;4.10;;;;;;;20.54;55.84;100517.16;20660376;28;20152;-82
2022/11/25 05:38:56;;;;;;;7.07;4.07;;;;;;;20.64;56.37;100528.69;20672147;28;20041;-83
2022/11/25 05:48:57;;;;;;;6.07;4.45;;;;;;;20.71;56.04;100523.84;20670094;28;20046;-78
2022/11/25 05:58:58;;;;;;;7.35;4.05;;;;;;;20.81;55.71;100558.25;20657036;28;20125;-81
2022/11/25 06:08:59;;;;;;;9.73;5.20;;;;;;;20.79;53.40;100556.56;20657836;28;20220;-79
2022/11/25 06:19:04;;;;;;;17.65;5.68;;;;;;;20.79;53.44;100582.88;20682994;28;20124;-84
2022/11/25 06:29:04;;;;;;;12.55;5.50;;;;;;;20.87;53.11;100597.28;20645492;28;20054;-79
2022/11/25 06:39:05;;;;;;;25.48;10.65;;;;;;;20.12;42.63;100596.38;20643887;28;20038;-78
2022/11/25 06:49:06;;;;;;;18.63;8.65;;;;;;;20.55;46.32;100589.88;20638783;28;20051;-77
2022/11/25 06:59:06;;;;;;;17.60;6.78;;;;;;;20.67;49.00;100611.84;20656097;28;20093;-78
2022/11/25 07:09:07;;;;;;;12.77;6.20;;;;;;;20.77;50.31;100615.53;20641533;28;20753;-78
2022/11/25 07:19:10;;;;;;;10.20;5.32;;;;;;;20.84;50.65;100626.47;20657636;28;20397;-78
2022/11/25 07:29:14;;;;;;;10.38;5.18;;;;;;;20.92;51.07;100634.63;20647090;28;20050;-78
2022/11/25 07:39:22;;;;;;;8.07;4.78;;;;;;;20.97;51.01;100635.16;20662477;28;20489;-78
2022/11/25 07:49:25;;;;;;;17.52;5.20;;;;;;;21.06;50.78;100641.53;20651973;28;20137;-80
2022/11/25 07:59:26;;;;;;;8.88;4.90;;;;;;;21.14;50.74;100646.22;20665091;28;20133;-81
2022/11/25 08:09:26;;;;;;;10.65;4.97;;;;;;;21.19;50.86;100652.00;20646888;28;20057;-78
2022/11/25 08:19:26;;;;;;;9.65;5.20;;;;;;;21.27;51.38;100653.09;20646650;28;20520;-79
2022/11/25 08:29:27;;;;;;;10.02;5.60;;;;;;;21.34;51.75;100656.13;20644947;28;20493;-82
2022/11/25 08:39:29;;;;;;;8.93;5.35;;;;;;;21.42;51.13;100661.69;20652296;28;20046;-79
2022/11/25 08:49:29;;;;;;;8.77;4.90;;;;;;;21.51;51.41;100675.13;20659884;28;20050;-80
2022/11/25 08:59:30;;;;;;;9.50;5.95;;;;;;;21.56;50.98;100667.72;20661274;28;20061;-79
2022/11/25 09:09:30;;;;;;;11.70;6.05;;;;;;;21.62;50.89;100662.03;20697952;28;20505;-82
2022/11/25 09:19:32;;;;;;;16.88;5.93;;;;;;;21.71;50.51;100663.94;20708060;28;20070;-79
2022/11/25 09:29:32;;;;;;;18.38;5.82;;;;;;;21.81;50.77;100665.91;20705478;28;20050;-81
2022/11/25 09:39:34;;;;;;;11.45;6.22;;;;;;;21.84;51.03;100663.88;20701399;28;20052;-75
2022/11/25 09:49:55;;;;;;;12.60;5.40;;;;;;;21.94;51.48;100653.47;20698261;28;20046;-83
2022/11/25 10:00:12;;;;;;;11.73;5.40;;;;;;;22.03;51.07;100644.88;20722939;28;20091;-78
2022/11/25 10:10:43;;;;;;;14.52;9.50;;;;;;;21.46;40.90;100646.50;20707703;28;20076;-81
2022/11/25 10:20:46;;;;;;;13.68;8.82;;;;;;;21.16;39.91;100641.69;20714314;28;20056;-83
2022/11/25 10:31:15;;;;;;;10.60;6.72;;;;;;;21.64;45.51;100643.47;20710202;28;20038;-82
2022/11/25 10:41:20;;;;;;;8.20;5.50;;;;;;;21.87;46.54;100641.72;20729606;28;20046;-83
2022/11/25 10:51:44;;;;;;;8.30;5.75;;;;;;;22.02;46.91;100653.72;20719150;28;20049;-80
2022/11/25 11:01:45;;;;;;;7.32;5.93;;;;;;;22.11;47.70;100648.72;20722132;28;20034;-80
2022/11/25 11:11:47;;;;;;;9.38;6.45;;;;;;;22.21;48.16;100652.31;20685949;28;20042;-83
2022/11/25 11:21:49;;;;;;;9.38;6.35;;;;;;;22.27;48.23;100665.00;20677756;28;20030;-81
2022/11/25 11:32:00;;;;;;;9.37;6.83;;;;;;;22.35;48.48;100665.25;20681750;28;20050;-82
2022/11/25 11:42:21;;;;;;;9.50;6.93;;;;;;;22.44;48.54;100662.91;20686732;28;20053;-82
2022/11/25 11:52:50;;;;;;;15.35;8.60;;;;;;;22.58;49.54;100662.63;20664968;28;20053;-80
2022/11/25 12:03:04;;;;;;;21.27;10.50;;;;;;;22.76;52.73;100656.88;20678501;28;20101;-78
2022/11/25 12:13:13;;;;;;;14.75;9.82;;;;;;;22.83;52.73;100653.59;20641616;28;20455;-81
2022/11/25 12:23:39;;;;;;;16.67;8.90;;;;;;;22.87;52.17;100659.47;20680814;28;20064;-80
2022/11/25 12:33:51;;;;;;;10.70;7.20;;;;;;;22.82;51.49;100651.91;20687578;28;20070;-80
2022/11/25 12:44:11;;;;;;;14.48;7.50;;;;;;;22.80;51.24;100650.38;20665773;28;20062;-81
2022/11/25 12:54:20;;;;;;;12.10;6.38;;;;;;;22.82;51.09;100648.44;20670725;28;20130;-78
2022/11/25 13:05:02;;;;;;;8.80;6.18;;;;;;;22.82;50.96;100637.88;20658304;28;20444;-83
2022/11/25 13:15:37;;;;;;;8.80;6.07;;;;;;;22.79;50.50;100643.41;20660295;28;20116;-81
2022/11/25 13:25:43;;;;;;;6.88;5.60;;;;;;;22.68;50.17;100639.84;20672922;28;20044;-81
2022/11/25 13:35:44;;;;;;;10.05;5.80;;;;;;;22.63;50.17;100644.66;20662761;28;20085;-78
2022/11/25 13:45:45;;;;;;;8.73;5.70;;;;;;;22.57;50.11;100660.13;20664618;28;20050;-80
2022/11/25 13:55:49;;;;;;;10.88;5.45;;;;;;;22.47;50.25;100668.78;20694104;28;20112;-79
2022/11/25 14:05:49;;;;;;;10.35;5.70;;;;;;;22.37;50.33;100673.91;20699569;28;20112;-81
2022/11/25 14:15:49;;;;;;;7.22;4.88;;;;;;;22.29;50.29;100692.13;20684689;28;20046;-81
2022/11/25 14:25:54;;;;;;;13.55;5.95;;;;;;;22.17;49.99;100690.44;20646258;28;20038;-83
2022/11/25 14:36:01;;;;;;;14.57;5.50;;;;;;;22.17;50.99;100686.00;20632006;28;20125;-84
2022/11/25 14:46:12;;;;;;;12.90;5.63;;;;;;;22.19;51.53;100694.63;20663611;28;20510;-79
2022/11/25 14:56:15;;;;;;;14.15;8.68;;;;;;;21.65;45.18;100706.59;20628091;28;20066;-81
2022/11/25 15:06:18;;;;;;;17.02;7.93;;;;;;;21.81;46.83;100708.91;20659291;28;20049;-80
2022/11/25 15:16:23;;;;;;;10.60;7.03;;;;;;;21.88;48.25;100709.31;20666934;28;20057;-84
2022/11/25 15:26:26;;;;;;;12.05;6.13;;;;;;;21.88;49.25;100712.78;20666205;28;20052;-81
2022/11/25 15:36:27;;;;;;;10.93;5.28;;;;;;;21.72;49.90;100722.78;20648408;28;20078;-78
2022/11/25 15:46:31;;;;;;;8.90;5.40;;;;;;;21.74;49.67;100728.81;20654133;28;20065;-77
2022/11/25 15:56:36;;;;;;;10.15;6.13;;;;;;;21.78;49.76;100732.06;20645392;28;20397;-77
2022/11/25 16:06:50;;;;;;;12.38;6.03;;;;;;;21.74;49.95;100741.97;20641651;28;20053;-78
2022/11/25 16:16:52;;;;;;;8.77;5.57;;;;;;;;;;20649420;28;20042;-78
2022/11/25 16:27:02;;;;;;;11.25;5.55;;;;;;;21.73;50.53;100745.56;20646586;28;20112;-77
2022/11/25 16:37:02;;;;;;;8.00;5.43;;;;;;;21.67;50.57;100752.13;20647047;28;20038;-77
2022/11/25 16:47:03;;;;;;;13.65;5.90;;;;;;;21.61;50.50;100765.75;20653239;28;20108;-79
2022/11/25 16:57:04;;;;;;;10.82;5.63;;;;;;;21.61;51.09;100776.28;20669237;28;20347;-84
2022/11/25 17:07:10;;;;;;;9.48;6.22;;;;;;;21.55;51.55;100789.88;20666528;28;20049;-79
2022/11/25 17:17:16;;;;;;;9.88;5.80;;;;;;;21.51;51.54;100794.53;20615943;28;20042;-84
2022/11/25 17:27:37;;;;;;;13.88;5.90;;;;;;;21.54;52.07;100798.75;20661228;28;20046;-84
2022/11/25 17:37:37;;;;;;;13.60;6.15;;;;;;;21.55;52.28;100795.16;20679426;28;20121;-81
2022/11/25 17:47:37;;;;;;;12.13;6.55;;;;;;;21.54;52.56;100809.28;20662736;28;20053;-87
2022/11/25 17:57:38;;;;;;;12.77;5.57;;;;;;;21.58;52.64;100816.88;20664841;28;20048;-80
2022/11/25 18:07:39;;;;;;;9.32;6.13;;;;;;;21.62;52.64;100827.19;20664400;28;20042;-85
2022/11/25 18:17:40;;;;;;;10.70;6.10;;;;;;;21.58;52.55;100837.97;20638581;28;20089;-81
2022/11/25 18:27:41;;;;;;;10.82;5.72;;;;;;;21.63;53.15;100857.88;20644397;28;20133;-83
2022/11/25 18:37:42;;;;;;;12.63;7.50;;;;;;;21.66;53.91;100858.50;20662059;28;20050;-84
2022/11/25 18:47:43;;;;;;;20.88;14.63;;;;;;;21.70;54.34;100870.50;20645695;28;20104;-83
2022/11/25 18:57:47;;;;;;;30.73;15.88;;;;;;;21.73;55.05;100894.00;20645148;28;20050;-82
2022/11/25 19:07:54;;;;;;;48.75;27.35;;;;;;;21.75;56.00;100894.75;20632910;28;20096;-82
2022/11/25 19:18:00;;;;;;;39.22;26.90;;;;;;;21.80;55.35;100906.72;20640614;28;20040;-83
2022/11/25 19:28:01;;;;;;;44.92;34.55;;;;;;;21.85;55.61;100910.72;20631432;28;20042;-79
2022/11/25 19:38:04;;;;;;;206.00;110.32;;;;;;;21.90;55.29;100920.97;20628479;28;22131;-80
2022/11/25 19:48:10;;;;;;;157.93;81.70;;;;;;;21.77;51.95;100933.34;20613307;28;20109;-80
2022/11/25 19:58:12;;;;;;;147.85;81.18;;;;;;;21.75;53.56;100942.19;20619733;28;20041;-83
2022/11/25 20:08:18;;;;;;;134.13;71.95;;;;;;;21.74;53.78;100953.69;20636052;28;20755;-84
2022/11/25 20:18:22;;;;;;;129.35;69.55;;;;;;;21.71;53.90;100956.50;20642697;28;20050;-83
2022/11/25 20:28:28;;;;;;;119.93;63.20;;;;;;;21.72;53.71;100970.56;20627145;28;20072;-85
2022/11/25 20:38:31;;;;;;;108.03;57.85;;;;;;;21.71;53.79;100982.88;20630652;28;20044;-81
2022/11/25 20:48:36;;;;;;;;;;;;;;;21.66;53.73;100992.91;20648337;28;20046;-83
2022/11/25 20:58:37;;;;;;;96.45;50.75;;;;;;;21.72;53.06;101005.66;20588554;28;19925;-80
2022/11/25 21:08:38;;;;;;;83.07;45.97;;;;;;;21.61;53.60;101002.09;20631760;28;20568;-76
2022/11/25 21:18:40;;;;;;;77.18;43.63;;;;;;;21.59;53.14;101003.03;20649126;28;20030;-78
2022/11/25 21:28:42;;;;;;;69.03;40.67;;;;;;;21.55;53.16;100995.41;20637430;28;20046;-81
2022/11/25 21:38:44;;;;;;;68.97;39.00;;;;;;;21.44;53.98;100997.00;20648147;28;20042;-83
2022/11/25 21:48:45;;;;;;;62.72;35.60;;;;;;;21.44;54.14;101001.44;20647904;28;20061;-81
2022/11/25 21:58:45;;;;;;;62.58;35.75;;;;;;;21.39;54.14;101006.19;20649911;28;20672;-80
2022/11/25 22:08:46;;;;;;;59.03;33.92;;;;;;;21.33;54.55;101012.69;20659526;28;20030;-79
2022/11/25 22:18:46;;;;;;;56.22;32.03;;;;;;;21.19;54.66;101018.06;20667573;28;20038;-81
2022/11/25 22:28:50;;;;;;;50.00;29.23;;;;;;;21.19;54.41;101015.41;20663400;28;20056;-79
2022/11/25 22:38:50;;;;;;;47.05;28.50;;;;;;;21.14;54.66;101020.16;20646510;28;20149;-79
2022/11/25 22:48:51;;;;;;;46.67;27.42;;;;;;;21.10;54.86;101033.53;20663943;28;20034;-81
2022/11/25 22:58:57;;;;;;;45.40;26.58;;;;;;;21.10;54.53;101045.84;20647581;28;20038;-80
2022/11/25 23:08:58;;;;;;;39.22;23.33;;;;;;;21.04;54.49;101049.72;20649745;28;20630;-77
2022/11/25 23:18:58;;;;;;;37.53;23.02;;;;;;;21.09;53.84;101044.16;20653138;28;20054;-78
2022/11/25 23:28:59;;;;;;;37.00;22.73;;;;;;;21.10;54.25;101067.78;20653562;28;20118;-80
2022/11/25 23:39:02;;;;;;;36.17;22.15;;;;;;;21.06;54.05;101068.06;20643427;28;20049;-80
2022/11/25 23:49:06;;;;;;;32.58;20.17;;;;;;;21.03;54.39;101058.59;20626397;28;20074;-79
2022/11/25 23:59:14;;;;;;;32.53;19.67;;;;;;;21.02;54.46;101077.97;20592132;28;20038;-80
